createdAt,value
2022-10-06T00:00:02.345Z,2.00
2022-10-06T00:02:29.889Z,1.40
2022-10-06T00:04:57.558Z,1.40
2022-10-06T00:07:27.619Z,1.60
2022-10-06T00:09:54.709Z,1.15
2022-10-06T00:12:21.957Z,1.42
2022-10-06T00:14:49.061Z,1.13
2022-10-06T00:17:16.212Z,1.50
2022-10-06T00:19:43.510Z,1.20
2022-10-06T00:22:13.597Z,1.05
2022-10-06T00:27:19.038Z,1.00
2022-10-06T00:29:46.156Z,1.30
2022-10-06T00:32:13.289Z,1.13
2022-10-06T00:34:44.074Z,1.35
2022-10-06T00:37:11.171Z,1.20
2022-10-06T00:39:38.665Z,1.35
2022-10-06T00:42:05.896Z,1.15
2022-10-06T00:44:33.063Z,1.00
2022-10-06T00:47:00.225Z,1.20
2022-10-06T00:49:31.335Z,1.02
2022-10-06T00:52:03.799Z,1.10
2022-10-06T00:54:32.325Z,1.38
2022-10-06T00:57:02.788Z,1.07
2022-10-06T00:59:29.938Z,1.35
2022-10-06T01:02:06.848Z,1.20
2022-10-06T01:04:36.202Z,1.17
2022-10-06T01:07:04.005Z,1.23
2022-10-06T01:09:31.622Z,1.10
2022-10-06T01:12:00.613Z,1.10
2022-10-06T01:14:27.886Z,1.10
2022-10-06T01:17:08.042Z,1.13
2022-10-06T01:19:40.477Z,1.02
2022-10-06T01:22:08.649Z,1.03
2022-10-06T01:24:36.412Z,1.02
2022-10-06T01:27:05.197Z,1.27
2022-10-06T01:29:33.431Z,0.90
2022-10-06T01:32:01.077Z,0.95
2022-10-06T01:34:28.389Z,1.00
2022-10-06T01:36:55.713Z,0.93
2022-10-06T01:39:23.049Z,1.23
2022-10-06T01:41:53.192Z,0.80
2022-10-06T01:44:20.569Z,0.90
2022-10-06T01:46:47.754Z,1.10
2022-10-06T01:49:14.891Z,0.95
2022-10-06T01:51:42.068Z,1.30
2022-10-06T01:54:09.199Z,1.05
2022-10-06T01:56:36.378Z,1.15
2022-10-06T01:59:03.693Z,0.90
2022-10-06T02:01:30.985Z,1.45
2022-10-06T02:03:58.300Z,1.00
2022-10-06T02:06:26.148Z,1.10
2022-10-06T02:08:53.419Z,0.93
2022-10-06T02:11:20.660Z,1.10
2022-10-06T02:13:48.524Z,1.13
2022-10-06T02:16:16.151Z,0.90
2022-10-06T02:18:43.418Z,1.10
2022-10-06T02:21:18.441Z,0.95
2022-10-06T02:23:51.588Z,0.97
2022-10-06T02:26:19.114Z,1.23
2022-10-06T02:28:47.023Z,0.77
2022-10-06T02:31:14.826Z,0.98
2022-10-06T02:33:42.362Z,1.13
2022-10-06T02:36:11.148Z,1.60
2022-10-06T02:38:38.606Z,1.00
2022-10-06T02:41:05.828Z,1.10
2022-10-06T02:43:32.955Z,0.90
2022-10-06T02:46:02.508Z,1.02
2022-10-06T02:48:31.719Z,1.20
2022-10-06T02:51:04.570Z,0.90
2022-10-06T02:53:31.750Z,1.02
2022-10-06T02:56:02.994Z,1.02
2022-10-06T02:58:31.258Z,0.90
2022-10-06T03:01:06.208Z,0.73
2022-10-06T03:03:37.168Z,1.45
2022-10-06T03:06:06.390Z,1.20
2022-10-06T03:08:34.335Z,0.80
2022-10-06T03:11:03.228Z,1.10
2022-10-06T03:13:34.494Z,0.80
2022-10-06T03:16:02.456Z,1.00
2022-10-06T03:18:33.425Z,1.05
2022-10-06T03:21:01.490Z,1.30
2022-10-06T03:23:28.749Z,1.55
2022-10-06T03:25:56.883Z,1.63
2022-10-06T03:28:24.242Z,1.35
2022-10-06T03:30:51.504Z,1.00
2022-10-06T03:33:18.930Z,0.85
2022-10-06T03:35:46.095Z,1.52
2022-10-06T03:38:13.229Z,0.97
2022-10-06T03:40:40.302Z,1.00
2022-10-06T03:43:09.908Z,0.98
2022-10-06T03:45:36.993Z,1.13
2022-10-06T03:48:04.168Z,0.88
2022-10-06T03:50:31.251Z,0.80
2022-10-06T03:52:58.399Z,1.10
2022-10-06T03:55:25.510Z,1.25
2022-10-06T03:57:52.647Z,1.05
2022-10-06T04:00:19.802Z,1.20
2022-10-06T04:02:47.026Z,1.13
2022-10-06T04:05:14.389Z,1.00
2022-10-06T04:07:44.544Z,1.13
2022-10-06T04:10:11.679Z,0.95
2022-10-06T04:12:38.824Z,1.30
2022-10-06T04:15:06.108Z,1.30
2022-10-06T04:17:33.230Z,1.23
2022-10-06T04:20:00.398Z,1.10
2022-10-06T04:22:27.509Z,1.05
2022-10-06T04:24:54.724Z,1.30
2022-10-06T04:27:31.433Z,1.00
2022-10-06T04:29:59.383Z,1.25
2022-10-06T04:32:29.615Z,0.98
2022-10-06T04:34:57.024Z,1.05
2022-10-06T04:37:24.158Z,1.20
2022-10-06T04:39:51.705Z,1.10
2022-10-06T04:42:18.864Z,0.98
2022-10-06T04:44:46.388Z,1.10
2022-10-06T04:47:13.543Z,1.00
2022-10-06T04:49:40.796Z,1.65
2022-10-06T04:52:07.944Z,0.97
2022-10-06T04:54:35.209Z,0.90
2022-10-06T04:57:02.664Z,1.10
2022-10-06T04:59:51.281Z,1.13
2022-10-06T05:02:20.992Z,1.10
2022-10-06T05:04:48.503Z,1.13
2022-10-06T05:07:16.155Z,0.90
2022-10-06T05:09:43.408Z,1.00
2022-10-06T05:12:11.108Z,1.60
2022-10-06T05:14:38.672Z,1.50
2022-10-06T05:17:06.192Z,1.20
2022-10-06T05:19:33.446Z,1.88
2022-10-06T05:22:00.607Z,1.95
2022-10-06T05:24:28.370Z,1.90
2022-10-06T05:27:00.846Z,2.08
2022-10-06T05:29:28.807Z,1.50
2022-10-06T05:31:56.030Z,1.35
2022-10-06T06:06:43.148Z,1.33
2022-10-06T06:09:11.969Z,1.33
2022-10-06T06:11:41.061Z,1.30
2022-10-06T06:14:10.563Z,1.30
2022-10-06T06:16:44.538Z,1.10
2022-10-06T06:19:12.874Z,1.40
2022-10-06T06:21:40.044Z,1.20
2022-10-06T06:24:07.487Z,1.23
2022-10-06T06:26:36.770Z,1.38
2022-10-06T06:29:05.342Z,1.45
2022-10-06T06:31:40.556Z,1.30
2022-10-06T06:34:12.076Z,1.23
2022-10-06T06:36:45.928Z,1.33
2022-10-06T06:39:15.338Z,1.40
2022-10-06T06:41:46.193Z,1.58
2022-10-06T06:44:13.974Z,1.38
2022-10-06T06:46:43.559Z,1.40
2022-10-06T06:49:15.398Z,1.65
2022-10-06T06:51:54.866Z,1.70
2022-10-06T06:54:26.168Z,1.63
2022-10-06T06:56:55.213Z,1.80
2022-10-06T06:59:22.328Z,1.40
2022-10-06T07:01:49.585Z,1.55
2022-10-06T07:04:19.555Z,1.67
2022-10-06T07:06:53.827Z,1.25
2022-10-06T07:09:23.604Z,1.45
2022-10-06T07:11:51.891Z,1.97
2022-10-06T07:14:23.524Z,1.35
2022-10-06T07:17:09.453Z,1.40
2022-10-06T16:10:35.369Z,0.73
2022-10-06T16:13:02.471Z,0.93
2022-10-06T16:15:29.563Z,1.13
2022-10-06T16:17:56.724Z,1.05
2022-10-06T16:20:23.852Z,1.08
2022-10-06T16:22:51.216Z,0.90
2022-10-06T16:25:18.339Z,1.02
2022-10-06T16:27:45.698Z,0.80
2022-10-06T16:30:14.865Z,0.90
2022-10-06T16:32:42.080Z,1.00
2022-10-06T16:35:09.319Z,0.90
2022-10-06T16:37:36.629Z,0.85
2022-10-06T16:40:03.833Z,1.38
2022-10-06T16:42:31.030Z,1.42
2022-10-06T16:44:58.327Z,1.20
2022-10-06T16:47:28.433Z,1.47
2022-10-06T16:49:55.554Z,1.10
2022-10-06T16:52:22.681Z,1.50
2022-10-06T16:54:49.781Z,1.30
2022-10-06T16:57:17.071Z,1.33
2022-10-06T16:59:46.890Z,2.17
2022-10-06T17:02:14.483Z,1.27
2022-10-06T17:04:41.804Z,1.20
2022-10-06T17:07:09.657Z,0.80
2022-10-06T17:09:37.301Z,1.35
2022-10-06T17:12:10.970Z,1.03
2022-10-06T17:14:38.776Z,1.30
2022-10-06T17:17:08.921Z,3.10
2022-10-06T17:19:36.044Z,2.85
2022-10-06T17:22:03.232Z,2.30
2022-10-06T17:24:31.286Z,1.60
2022-10-06T17:26:58.945Z,1.65
2022-10-06T17:29:26.367Z,1.20
2022-10-06T17:31:59.648Z,1.00
2022-10-06T17:34:33.225Z,1.40
2022-10-06T17:37:01.593Z,1.10
2022-10-06T17:39:28.892Z,1.30
2022-10-06T17:41:56.089Z,1.20
2022-10-06T17:44:27.292Z,1.38
2022-10-06T17:47:00.916Z,1.10
2022-10-06T17:54:59.540Z,1.20
2022-10-06T17:57:30.417Z,1.20
2022-10-06T17:59:58.907Z,1.50
2022-10-06T18:03:11.818Z,1.50
2022-10-06T18:05:40.400Z,1.50
2022-10-06T18:08:10.176Z,1.58
2022-10-06T18:10:59.771Z,1.40
2022-10-06T18:13:28.359Z,1.33
2022-10-06T18:15:55.466Z,1.60
2022-10-06T18:18:25.255Z,1.40
2022-10-06T18:20:53.097Z,1.30
2022-10-06T18:23:20.467Z,1.23
2022-10-06T18:25:47.591Z,1.40
2022-10-06T18:28:14.760Z,1.20
2022-10-06T18:30:41.925Z,1.60
2022-10-06T18:38:41.717Z,1.75
2022-10-06T18:41:19.700Z,1.90
2022-10-06T18:43:47.015Z,1.83
2022-10-06T18:46:37.662Z,1.67
2022-10-06T18:54:26.764Z,1.37
2022-10-06T18:59:35.209Z,1.63
2022-10-06T19:02:03.021Z,1.95
2022-10-06T19:04:33.629Z,1.48
2022-10-06T19:07:06.541Z,1.70
2022-10-06T19:09:33.790Z,1.80
2022-10-06T19:12:01.894Z,2.20
2022-10-06T19:14:31.428Z,2.30
2022-10-06T19:17:02.814Z,1.90
2022-10-06T19:19:31.293Z,1.90
2022-10-06T19:22:00.354Z,2.13
2022-10-06T19:24:29.882Z,2.10
2022-10-06T19:26:57.814Z,2.00
2022-10-06T19:29:26.738Z,1.80
2022-10-06T19:31:56.461Z,1.80
2022-10-06T19:34:24.634Z,1.50
2022-10-06T19:36:58.031Z,1.60
2022-10-06T19:39:26.975Z,1.77
2022-10-06T19:42:13.758Z,2.40
2022-10-06T19:44:43.115Z,2.07
2022-10-06T19:47:12.789Z,1.90
2022-10-06T19:49:43.008Z,1.80
2022-10-06T19:52:11.424Z,1.60
2022-10-06T19:54:39.466Z,2.17
2022-10-06T19:57:07.153Z,1.93
2022-10-06T19:59:35.462Z,1.92
2022-10-06T20:07:30.763Z,1.98
2022-10-06T20:12:41.423Z,2.05
2022-10-06T20:20:25.803Z,1.73
2022-10-06T20:22:53.909Z,1.70
2022-10-06T20:25:21.025Z,1.75
2022-10-06T20:27:48.504Z,1.80
2022-10-06T20:30:15.629Z,1.92
2022-10-06T20:32:42.830Z,1.90
2022-10-06T20:35:10.134Z,1.83
2022-10-06T20:37:41.657Z,2.00
2022-10-06T20:40:31.545Z,1.73
2022-10-06T20:43:03.746Z,2.08
2022-10-06T20:45:31.954Z,2.00
2022-10-06T20:48:00.635Z,2.03
2022-10-06T20:50:31.274Z,2.00
2022-10-06T20:52:59.079Z,2.55
2022-10-06T20:55:26.435Z,2.38
2022-10-06T20:57:54.848Z,2.67
2022-10-06T21:00:24.994Z,2.73
2022-10-06T21:02:52.150Z,2.42
2022-10-06T21:05:20.126Z,2.85
2022-10-06T21:07:47.585Z,2.13
2022-10-06T21:10:14.816Z,2.67
2022-10-06T21:12:43.294Z,2.60
2022-10-06T21:15:10.641Z,2.65
2022-10-06T21:17:37.792Z,3.50
2022-10-06T21:20:05.861Z,3.13
2022-10-06T21:22:33.212Z,3.22
2022-10-06T21:25:00.387Z,3.20
2022-10-06T21:27:27.528Z,3.10
2022-10-06T21:29:55.088Z,2.95
2022-10-06T21:32:22.161Z,3.17
2022-10-06T21:34:50.291Z,3.15
2022-10-06T21:37:17.358Z,3.63
2022-10-06T21:39:44.455Z,3.20
2022-10-06T21:42:11.567Z,3.20
2022-10-06T21:44:38.679Z,3.10
2022-10-06T21:47:05.940Z,3.28
2022-10-06T21:49:33.160Z,3.37
2022-10-06T21:52:05.592Z,3.70
2022-10-06T21:54:33.638Z,3.38
2022-10-06T21:57:01.610Z,3.78
2022-10-06T21:59:29.661Z,3.33
2022-10-06T22:01:57.533Z,3.33
2022-10-06T22:04:25.463Z,3.40
2022-10-06T22:06:53.362Z,3.28
2022-10-06T22:09:24.235Z,3.20
2022-10-06T22:11:51.488Z,3.13
2022-10-06T22:14:20.105Z,3.10
2022-10-06T22:16:47.274Z,3.60
2022-10-06T22:19:16.334Z,3.20
2022-10-06T22:21:44.394Z,3.50
2022-10-06T22:24:22.363Z,3.28
2022-10-06T22:26:50.172Z,3.10
2022-10-06T22:29:18.445Z,3.55
2022-10-06T22:31:46.650Z,3.33
2022-10-06T22:34:15.158Z,3.63
2022-10-06T22:39:20.445Z,3.17
2022-10-06T22:41:47.519Z,3.20
2022-10-06T23:05:55.924Z,3.70
2022-10-06T23:35:23.318Z,3.85
2022-10-06T23:43:00.922Z,3.72
2022-10-06T23:45:35.376Z,4.83
